createdAt,value
2018-03-28T00:01:53.413Z,50.37
2018-03-28T00:04:22.355Z,50.10
2018-03-28T00:06:51.992Z,43.50
2018-03-28T00:09:21.109Z,44.90
2018-03-28T00:11:50.093Z,52.73
2018-03-28T00:14:18.995Z,48.40
2018-03-28T00:16:47.988Z,52.47
2018-03-28T00:19:17.242Z,45.60
2018-03-28T00:21:46.118Z,49.53
2018-03-28T00:24:15.754Z,41.77
2018-03-28T00:26:44.854Z,38.53
2018-03-28T00:29:13.684Z,42.53
2018-03-28T00:31:42.527Z,48.50
2018-03-28T00:34:11.308Z,48.60
2018-03-28T00:36:41.347Z,43.80
2018-03-28T00:39:10.231Z,49.67
2018-03-28T00:41:39.164Z,47.93
2018-03-28T00:44:08.032Z,51.80
2018-03-28T00:46:36.914Z,51.33
2018-03-28T00:49:05.794Z,60.90
2018-03-28T00:51:38.439Z,52.93
2018-03-28T00:54:08.204Z,48.63
2018-03-28T00:56:37.220Z,52.07
2018-03-28T00:59:06.041Z,44.17
2018-03-28T01:01:35.776Z,44.73
2018-03-28T01:04:05.512Z,42.70
2018-03-28T01:06:35.292Z,61.63
2018-03-28T01:09:04.281Z,52.33
2018-03-28T01:11:33.317Z,43.83
2018-03-28T01:14:02.208Z,54.83
2018-03-28T01:16:31.372Z,46.27
2018-03-28T01:19:01.162Z,52.93
2018-03-28T01:21:30.344Z,50.33
2018-03-28T01:23:59.529Z,41.23
2018-03-28T01:26:28.923Z,43.77
2018-03-28T01:28:57.933Z,42.23
2018-03-28T01:31:26.877Z,49.77
2018-03-28T01:33:56.549Z,49.83
2018-03-28T01:36:26.472Z,50.30
2018-03-28T01:38:55.432Z,53.43
2018-03-28T01:41:24.207Z,39.13
2018-03-28T01:43:53.173Z,50.53
2018-03-28T01:46:22.103Z,47.27
2018-03-28T01:48:50.996Z,46.13
2018-03-28T01:51:19.918Z,47.87
2018-03-28T05:13:06.117Z,116.57
2018-03-28T05:15:37.927Z,94.97
2018-03-28T05:18:08.612Z,85.90
2018-03-28T05:20:38.300Z,77.30
2018-03-28T05:23:07.770Z,84.10
2018-03-28T05:25:37.225Z,69.23
2018-03-28T05:28:07.579Z,87.63
2018-03-28T05:30:37.368Z,66.53
2018-03-28T05:33:07.218Z,81.60
2018-03-28T05:35:36.181Z,74.30
2018-03-28T05:38:05.967Z,67.10
2018-03-28T05:40:34.904Z,69.97
2018-03-28T05:43:04.509Z,65.97
2018-03-28T05:45:33.429Z,80.53
2018-03-28T05:48:02.795Z,68.30
2018-03-28T05:50:31.750Z,80.60
2018-03-28T05:53:01.007Z,80.53
2018-03-28T05:55:29.968Z,90.73
2018-03-28T05:57:59.650Z,85.93
2018-03-28T06:00:28.612Z,62.93
2018-03-28T06:02:57.732Z,70.23
2018-03-28T06:05:26.679Z,81.33
2018-03-28T06:07:55.631Z,98.73
2018-03-28T06:10:24.767Z,96.00
2018-03-28T06:12:53.798Z,94.27
2018-03-28T06:15:23.425Z,125.53
2018-03-28T06:17:52.484Z,89.77
2018-03-28T06:20:21.753Z,83.07
2018-03-28T06:22:51.015Z,87.23
2018-03-28T06:25:19.956Z,73.60
2018-03-28T06:27:49.182Z,71.93
2018-03-28T06:30:18.295Z,94.00
2018-03-28T06:32:47.344Z,89.97
2018-03-28T06:35:16.405Z,80.17
2018-03-28T06:37:45.652Z,59.87
2018-03-28T06:40:14.619Z,67.70
2018-03-28T06:42:44.251Z,100.27
2018-03-28T06:45:13.361Z,99.07
2018-03-28T06:47:42.395Z,75.40
2018-03-28T06:50:12.138Z,83.57
2018-03-28T06:52:41.038Z,72.73
2018-03-28T06:55:09.948Z,75.13
2018-03-28T06:57:39.766Z,79.10
2018-03-28T07:00:08.754Z,82.57
2018-03-28T07:02:37.640Z,66.90
2018-03-28T07:05:06.604Z,69.03
2018-03-28T07:07:35.651Z,99.33
2018-03-28T07:10:06.076Z,90.03
2018-03-28T07:12:34.989Z,84.43
2018-03-28T07:15:04.759Z,76.17
2018-03-28T07:17:33.836Z,60.47
2018-03-28T07:20:02.774Z,68.73
2018-03-28T07:22:31.772Z,97.13
2018-03-28T07:25:00.752Z,69.90
2018-03-28T07:27:29.723Z,99.97
2018-03-28T07:29:58.794Z,113.37
2018-03-28T07:32:28.664Z,127.47
2018-03-28T07:34:58.366Z,173.83
2018-03-28T07:37:27.546Z,109.77
2018-03-28T07:39:56.932Z,94.87
2018-03-28T07:42:25.850Z,152.70
2018-03-28T07:44:54.815Z,75.80
2018-03-28T07:47:23.753Z,76.20
2018-03-28T07:49:52.923Z,58.70
2018-03-28T07:52:22.046Z,52.73
2018-03-28T07:54:51.107Z,56.03
2018-03-28T07:57:20.088Z,58.73
2018-03-28T07:59:49.786Z,59.83
2018-03-28T08:02:19.924Z,52.97
2018-03-28T08:04:49.035Z,54.30
2018-03-28T08:07:18.716Z,75.40
2018-03-28T08:09:47.671Z,60.97
2018-03-28T08:12:16.649Z,75.13
2018-03-28T08:14:46.446Z,61.27
2018-03-28T08:17:15.482Z,45.97
2018-03-28T08:19:44.449Z,54.80
2018-03-28T08:22:13.370Z,63.67
2018-03-28T08:24:43.195Z,99.23
2018-03-28T08:27:12.134Z,94.37
2018-03-28T08:29:41.914Z,64.67
2018-03-28T08:32:10.848Z,88.83
2018-03-28T08:34:40.573Z,107.10
2018-03-28T08:37:10.328Z,60.90
2018-03-28T08:39:39.242Z,88.47
2018-03-28T08:42:08.376Z,49.50
2018-03-28T08:44:37.286Z,60.77
2018-03-28T08:47:06.211Z,74.33
2018-03-28T08:49:35.077Z,61.93
2018-03-28T08:52:04.216Z,67.43
2018-03-28T08:54:33.493Z,59.50
2018-03-28T08:57:02.709Z,84.93
2018-03-28T08:59:31.699Z,69.13
2018-03-28T09:02:01.105Z,77.87
2018-03-28T09:04:30.079Z,56.37
2018-03-28T09:06:58.997Z,68.53
2018-03-28T09:09:28.723Z,96.93
2018-03-28T09:11:58.426Z,74.23
2018-03-28T09:14:28.189Z,63.60
2018-03-28T09:16:57.266Z,84.97
2018-03-28T09:19:26.265Z,53.60
2018-03-28T09:21:55.958Z,61.47
2018-03-28T09:24:24.878Z,70.93
2018-03-28T09:26:55.195Z,63.57
2018-03-28T09:29:24.097Z,58.33
2018-03-28T09:31:53.790Z,58.30
2018-03-28T09:34:22.811Z,63.17
2018-03-28T09:36:51.682Z,66.07
2018-03-28T09:39:20.538Z,53.53
2018-03-28T09:41:49.433Z,52.20
2018-03-28T09:44:18.369Z,53.70
2018-03-28T09:46:47.286Z,49.07
2018-03-28T09:49:16.230Z,43.97
2018-03-28T09:51:45.882Z,47.97
2018-03-28T09:54:15.976Z,44.53
2018-03-28T09:56:44.942Z,48.60
2018-03-28T09:59:14.553Z,48.87
2018-03-28T10:01:49.229Z,44.17
2018-03-28T10:04:18.285Z,50.33
2018-03-28T10:06:47.412Z,48.30
2018-03-28T10:09:16.503Z,62.87
2018-03-28T10:11:45.540Z,53.17
2018-03-28T10:14:15.183Z,57.07
2018-03-28T10:16:44.189Z,61.63
2018-03-28T10:19:13.134Z,61.07
2018-03-28T10:21:42.846Z,53.23
2018-03-28T10:24:11.859Z,51.50
2018-03-28T10:26:40.950Z,46.00
2018-03-28T10:29:10.814Z,49.00
2018-03-28T10:31:39.809Z,53.40
2018-03-28T10:34:08.968Z,51.60
2018-03-28T10:36:38.033Z,47.40
2018-03-28T10:39:07.990Z,55.40
2018-03-28T10:41:36.875Z,40.47
2018-03-28T10:44:05.808Z,47.10
2018-03-28T10:46:35.536Z,39.90
2018-03-28T10:49:04.470Z,61.57
2018-03-28T10:51:33.405Z,52.70
2018-03-28T10:54:02.378Z,42.97
2018-03-28T10:56:31.362Z,64.13
2018-03-28T10:59:00.234Z,61.63
2018-03-28T11:01:29.291Z,56.77
2018-03-28T11:03:59.024Z,46.90
2018-03-28T11:06:27.912Z,49.33
2018-03-28T11:08:56.880Z,63.90
2018-03-28T11:11:25.998Z,57.87
2018-03-28T11:13:54.904Z,57.03
2018-03-28T11:16:23.761Z,41.00
2018-03-28T11:18:53.450Z,51.30
2018-03-28T11:21:23.213Z,48.77
2018-03-28T11:23:52.176Z,53.17
2018-03-28T11:26:22.013Z,50.60
2018-03-28T11:28:51.410Z,46.70
2018-03-28T11:31:20.533Z,55.30
2018-03-28T11:33:49.593Z,59.37
2018-03-28T11:36:18.878Z,51.40
2018-03-28T11:38:48.534Z,42.20
2018-03-28T11:41:17.443Z,47.23
2018-03-28T11:43:46.376Z,46.57
2018-03-28T11:46:15.498Z,55.00
2018-03-28T11:48:45.537Z,48.53
2018-03-28T11:51:14.542Z,63.00
2018-03-28T11:53:43.605Z,57.93
2018-03-28T11:56:12.585Z,57.63
2018-03-28T11:58:41.562Z,68.43
2018-03-28T12:01:12.699Z,53.87
2018-03-28T12:03:41.734Z,60.40
2018-03-28T12:06:10.836Z,69.77
2018-03-28T12:08:39.698Z,51.40
2018-03-28T12:11:08.733Z,57.20
2018-03-28T12:13:37.691Z,56.10
2018-03-28T12:16:07.372Z,63.00
2018-03-28T12:18:36.334Z,51.93
2018-03-28T12:21:05.307Z,68.60
2018-03-28T12:23:34.316Z,51.50
2018-03-28T12:26:03.224Z,52.40
2018-03-28T12:28:33.123Z,48.50
2018-03-28T12:31:02.094Z,44.17
2018-03-28T12:33:31.277Z,46.00
2018-03-28T12:36:00.153Z,42.33
2018-03-28T12:38:29.264Z,47.80
2018-03-28T12:40:58.149Z,52.97
2018-03-28T12:43:27.119Z,49.57
2018-03-28T12:45:56.804Z,46.93
2018-03-28T12:48:25.711Z,55.00
2018-03-28T12:50:54.585Z,53.43
2018-03-28T12:53:23.465Z,50.20
2018-03-28T12:55:52.702Z,46.43
2018-03-28T12:58:21.608Z,50.30
2018-03-28T13:00:50.608Z,50.23
2018-03-28T13:03:20.332Z,48.93
2018-03-28T13:05:49.223Z,49.87
2018-03-28T13:08:18.311Z,46.77
2018-03-28T13:10:47.298Z,48.37
2018-03-28T13:13:16.278Z,46.63
2018-03-28T13:15:45.894Z,44.73
2018-03-28T13:18:15.021Z,42.70
2018-03-28T13:20:43.957Z,41.40
2018-03-28T13:23:13.633Z,44.73
2018-03-28T13:25:42.665Z,44.03
2018-03-28T13:28:12.357Z,46.30
2018-03-28T13:30:42.089Z,47.57
2018-03-28T13:33:11.097Z,41.43
2018-03-28T13:35:40.765Z,50.47
2018-03-28T13:38:09.801Z,50.73
2018-03-28T13:40:38.815Z,60.83
2018-03-28T13:43:07.817Z,62.60
2018-03-28T13:45:36.791Z,50.50
2018-03-28T13:48:05.671Z,50.10
2018-03-28T13:50:34.744Z,50.10
2018-03-28T13:53:03.766Z,48.13
2018-03-28T13:55:32.938Z,56.37
2018-03-28T14:00:36.965Z,60.17
2018-03-28T14:03:08.157Z,57.10
2018-03-28T14:05:37.140Z,51.40
2018-03-28T14:08:05.990Z,47.53
2018-03-28T14:10:35.649Z,50.50
2018-03-28T14:13:04.598Z,50.23
2018-03-28T14:15:33.588Z,49.93
2018-03-28T14:18:03.268Z,45.90
2018-03-28T14:20:32.278Z,46.97
2018-03-28T14:23:02.116Z,41.93
2018-03-28T14:25:31.811Z,55.03
2018-03-28T14:28:01.067Z,59.13
2018-03-28T14:30:30.401Z,50.60
2018-03-28T14:32:59.442Z,52.07
2018-03-28T14:35:29.008Z,46.90
2018-03-28T14:47:43.137Z,49.10
2018-03-28T14:50:12.871Z,50.30
2018-03-28T14:52:42.974Z,48.90
2018-03-28T14:55:11.897Z,44.53
2018-03-28T14:57:40.833Z,60.27
2018-03-28T15:00:09.790Z,54.43
2018-03-28T15:02:39.326Z,52.13
2018-03-28T15:05:08.357Z,46.70
2018-03-28T15:07:37.370Z,55.60
2018-03-28T15:10:06.720Z,50.87
2018-03-28T15:12:36.377Z,40.23
2018-03-28T15:15:05.377Z,51.20
2018-03-28T15:17:34.318Z,51.63
2018-03-28T15:20:04.295Z,41.13
2018-03-28T15:22:34.140Z,48.30
2018-03-28T15:25:03.122Z,48.13
2018-03-28T15:27:32.073Z,49.63
2018-03-28T15:30:00.962Z,48.87
2018-03-28T15:32:30.654Z,52.93
2018-03-28T15:35:00.384Z,56.30
2018-03-28T15:37:29.614Z,51.33
2018-03-28T15:39:59.522Z,50.10
2018-03-28T15:42:28.570Z,56.03
2018-03-28T15:44:57.545Z,62.50
2018-03-28T15:47:27.275Z,58.93
2018-03-28T15:49:56.957Z,45.83
2018-03-28T15:52:25.852Z,55.63
2018-03-28T15:54:55.692Z,48.40
2018-03-28T15:57:24.607Z,49.27
2018-03-28T15:59:53.774Z,47.77
2018-03-28T16:02:23.663Z,49.90
2018-03-28T16:04:53.601Z,52.17
2018-03-28T16:07:24.414Z,51.53
2018-03-28T16:09:54.745Z,53.07
2018-03-28T16:12:25.573Z,54.83
2018-03-28T16:14:56.057Z,60.07
2018-03-28T16:17:25.220Z,54.27
2018-03-28T16:19:54.315Z,49.27
2018-03-28T16:22:23.498Z,65.40
2018-03-28T16:24:52.904Z,55.57
2018-03-28T16:27:23.420Z,65.93
2018-03-28T16:29:54.558Z,60.10
2018-03-28T16:32:24.090Z,64.23
2018-03-28T16:34:54.294Z,55.90
2018-03-28T16:37:23.417Z,48.70
2018-03-28T16:39:53.397Z,58.07
2018-03-28T16:42:23.828Z,53.97
2018-03-28T16:44:53.161Z,70.90
2018-03-28T16:47:22.384Z,64.00
2018-03-28T16:49:51.686Z,55.60
2018-03-28T16:52:20.755Z,54.17
2018-03-28T16:54:49.856Z,61.10
2018-03-28T16:57:18.905Z,54.27
2018-03-28T16:59:48.863Z,57.30
2018-03-28T17:02:17.828Z,56.63
2018-03-28T17:04:47.197Z,56.37
2018-03-28T17:07:16.939Z,60.93
2018-03-28T17:09:48.737Z,58.50
2018-03-28T17:12:17.751Z,62.40
2018-03-28T17:14:46.712Z,74.47
2018-03-28T17:17:15.693Z,78.97
2018-03-28T17:19:45.006Z,70.17
2018-03-28T17:22:14.109Z,69.57
2018-03-28T17:24:43.059Z,67.53
2018-03-28T17:27:12.085Z,69.07
2018-03-28T17:29:41.029Z,76.43
2018-03-28T17:32:10.177Z,97.77
2018-03-28T17:34:39.915Z,97.67
2018-03-28T17:37:09.751Z,95.63
2018-03-28T17:39:39.714Z,87.67
2018-03-28T17:42:08.769Z,87.00
2018-03-28T17:44:37.805Z,93.20
2018-03-28T17:47:08.605Z,85.23
2018-03-28T17:49:37.821Z,92.17
2018-03-28T17:52:07.852Z,78.73
2018-03-28T17:54:37.358Z,69.23
2018-03-28T17:57:07.011Z,70.07
2018-03-28T17:59:36.891Z,78.33
2018-03-28T18:02:06.318Z,78.37
2018-03-28T18:04:35.448Z,90.40
2018-03-28T18:07:04.565Z,90.80
2018-03-28T18:09:34.868Z,82.33
2018-03-28T18:12:04.809Z,90.07
2018-03-28T18:14:33.820Z,87.33
2018-03-28T18:17:02.994Z,92.43
2018-03-28T18:19:32.976Z,104.07
2018-03-28T18:22:02.120Z,108.13
2018-03-28T18:24:30.959Z,124.50
2018-03-28T18:27:00.709Z,84.67
2018-03-28T18:29:30.715Z,72.40
2018-03-28T18:31:59.922Z,63.60
2018-03-28T18:34:29.047Z,64.87
2018-03-28T18:36:58.226Z,68.13
2018-03-28T18:39:27.326Z,67.47
2018-03-28T18:41:56.353Z,69.30
2018-03-28T18:44:25.305Z,79.47
2018-03-28T18:46:54.199Z,67.80
2018-03-28T18:49:23.903Z,59.17
2018-03-28T18:51:53.542Z,57.33
2018-03-28T18:54:22.637Z,58.47
2018-03-28T18:56:51.706Z,58.57
2018-03-28T18:59:21.458Z,48.97
2018-03-28T19:01:50.840Z,71.07
2018-03-28T19:04:19.757Z,101.67
2018-03-28T19:06:49.891Z,104.77
2018-03-28T19:09:25.380Z,91.47
2018-03-28T19:11:55.947Z,80.40
2018-03-28T19:14:25.231Z,115.40
2018-03-28T19:16:54.114Z,121.37
2018-03-28T19:19:23.199Z,131.67
2018-03-28T19:21:52.961Z,126.73
2018-03-28T19:24:22.095Z,118.63
2018-03-28T19:26:50.995Z,138.93
2018-03-28T19:29:20.016Z,128.67
2018-03-28T19:31:49.322Z,97.57
2018-03-28T19:34:18.382Z,64.43
2018-03-28T19:36:48.321Z,50.57
2018-03-28T19:39:17.584Z,46.70
2018-03-28T19:41:46.481Z,41.43
2018-03-28T19:44:16.223Z,36.77
2018-03-28T19:46:45.926Z,38.33
2018-03-28T19:49:14.854Z,43.47
2018-03-28T19:51:43.691Z,39.47
2018-03-28T19:54:12.661Z,39.80
2018-03-28T19:56:41.924Z,40.00
2018-03-28T19:59:11.318Z,46.10
2018-03-28T20:01:40.279Z,43.13
2018-03-28T20:04:09.167Z,41.37
2018-03-28T20:06:38.891Z,41.67
2018-03-28T20:09:07.817Z,39.97
2018-03-28T20:11:36.783Z,42.03
2018-03-28T20:14:05.882Z,52.30
2018-03-28T20:16:34.945Z,53.40
2018-03-28T20:19:06.286Z,43.00
2018-03-28T20:21:36.102Z,44.23
2018-03-28T20:24:05.812Z,45.23
2018-03-28T20:26:35.092Z,46.03
2018-03-28T20:29:04.198Z,97.07
2018-03-28T20:31:33.171Z,95.47
2018-03-28T20:34:02.256Z,98.77
2018-03-28T20:36:31.120Z,112.40
2018-03-28T20:39:00.132Z,91.60
2018-03-28T20:41:28.978Z,110.53
2018-03-28T20:43:57.886Z,118.13
2018-03-28T20:46:26.956Z,99.67
2018-03-28T20:48:55.784Z,99.00
2018-03-28T20:51:24.827Z,103.57
2018-03-28T20:53:54.476Z,121.87
2018-03-28T20:56:23.347Z,111.87
2018-03-28T20:58:52.368Z,81.70
2018-03-28T21:01:21.358Z,48.13
2018-03-28T21:03:51.260Z,29.60
2018-03-28T21:06:21.062Z,26.30
2018-03-28T21:08:50.170Z,24.73
2018-03-28T21:11:19.292Z,27.13
2018-03-28T21:13:49.943Z,29.73
2018-03-28T21:16:20.631Z,30.20
2018-03-28T21:18:49.615Z,29.93
2018-03-28T21:21:21.027Z,32.00
2018-03-28T21:23:50.882Z,31.27
2018-03-28T21:26:21.572Z,36.60
2018-03-28T21:28:50.701Z,38.30
2018-03-28T21:31:19.937Z,44.13
2018-03-28T21:33:50.363Z,27.20
2018-03-28T21:36:19.320Z,20.27
2018-03-28T21:38:48.257Z,14.63
2018-03-28T21:41:17.306Z,12.70
2018-03-28T21:43:47.017Z,11.43
2018-03-28T21:46:16.114Z,17.27
2018-03-28T21:48:45.227Z,19.60
2018-03-28T21:51:14.370Z,27.17
2018-03-28T21:53:44.126Z,34.10
2018-03-28T21:56:12.988Z,35.63
2018-03-28T21:58:41.901Z,40.63
2018-03-28T22:01:11.914Z,46.60
2018-03-28T22:03:41.623Z,47.50
2018-03-28T22:06:10.539Z,52.13
2018-03-28T22:08:39.444Z,47.47
2018-03-28T22:11:08.453Z,45.63
2018-03-28T22:13:37.594Z,43.63
2018-03-28T22:16:06.620Z,45.73
2018-03-28T22:18:36.352Z,46.87
2018-03-28T22:21:06.342Z,57.90
2018-03-28T22:23:36.143Z,51.20
2018-03-28T22:26:05.067Z,50.17
2018-03-28T22:28:34.203Z,50.87
2018-03-28T22:31:03.865Z,55.03
2018-03-28T22:33:33.118Z,50.57
2018-03-28T22:36:02.100Z,46.40
2018-03-28T22:38:31.738Z,53.83
2018-03-28T22:41:01.607Z,42.33
2018-03-28T22:43:30.602Z,38.67
2018-03-28T22:45:59.565Z,41.27
2018-03-28T22:48:28.422Z,44.97
2018-03-28T22:50:57.710Z,46.07
2018-03-28T22:53:26.895Z,45.37
2018-03-28T22:55:56.095Z,49.83
2018-03-28T22:58:25.247Z,51.60
2018-03-28T23:00:54.370Z,47.43
2018-03-28T23:03:23.500Z,50.07
2018-03-28T23:05:52.486Z,49.00
2018-03-28T23:08:21.421Z,50.00
2018-03-28T23:10:50.408Z,55.23
2018-03-28T23:13:19.362Z,44.80
2018-03-28T23:15:48.294Z,37.90
2018-03-28T23:18:17.219Z,39.27
2018-03-28T23:20:47.115Z,33.13
2018-03-28T23:23:16.487Z,32.70
2018-03-28T23:25:45.754Z,33.87
2018-03-28T23:28:15.385Z,34.70
2018-03-28T23:30:44.477Z,32.63
2018-03-28T23:33:13.744Z,22.97
2018-03-28T23:35:42.626Z,20.80
2018-03-28T23:38:12.342Z,28.37
2018-03-28T23:40:41.501Z,37.43
2018-03-28T23:43:10.802Z,35.90
2018-03-28T23:45:42.328Z,29.60
2018-03-28T23:48:18.325Z,14.03
2018-03-28T23:50:55.637Z,17.33
2018-03-28T23:53:28.522Z,13.07
2018-03-28T23:56:07.213Z,10.40
2018-03-28T23:58:44.961Z,9.57
